Time;durP1;ratioP1;P1;durP2;ratioP2;P2;SDS_P1;SDS_P2;PMS_P1;PMS_P2;Temp;Humidity;BMP_temperature;BMP_pressure;BME280_temperature;BME280_humidity;BME280_pressure;Samples;Min_cycle;Max_cycle;Signal;HPM_P1;HPM_P2
2023/05/06 00:00:32;;;;;;;36.78;19.38;;;10.30;99.90;;;;;;5073484;28;20384;-73
2023/05/06 00:02:59;;;;;;;38.58;19.92;;;10.20;99.90;;;;;;5072099;28;20052;-72
2023/05/06 00:05:25;;;;;;;34.00;18.25;;;10.20;99.90;;;;;;5072121;28;20087;-71
2023/05/06 00:07:51;;;;;;;29.85;16.83;;;10.10;99.90;;;;;;5054998;28;20040;-71
2023/05/06 00:10:17;;;;;;;30.80;15.48;;;10.10;99.90;;;;;;5071910;28;20049;-71
2023/05/06 00:12:43;;;;;;;30.67;15.50;;;10.10;99.90;;;;;;5072770;28;20049;-71
2023/05/06 00:15:10;;;;;;;28.65;15.75;;;10.00;99.90;;;;;;5072021;28;20071;-71
2023/05/06 00:17:35;;;;;;;31.67;15.40;;;10.00;99.90;;;;;;5073072;28;20079;-73
2023/05/06 00:20:02;;;;;;;29.02;15.80;;;9.90;99.90;;;;;;5072504;28;20098;-71
2023/05/06 00:22:28;;;;;;;30.20;14.65;;;9.90;99.90;;;;;;5072208;28;20044;-71
2023/05/06 00:24:54;;;;;;;29.63;14.88;;;9.90;99.90;;;;;;5071048;28;20458;-73
2023/05/06 00:27:19;;;;;;;28.85;14.48;;;9.90;99.90;;;;;;5055562;28;20063;-72
2023/05/06 00:29:45;;;;;;;29.52;14.80;;;9.80;99.90;;;;;;5072574;28;20041;-73
2023/05/06 00:32:11;;;;;;;24.73;14.55;;;9.80;99.90;;;;;;5055354;28;20059;-72
2023/05/06 00:34:37;;;;;;;28.52;15.02;;;9.90;99.90;;;;;;5072788;28;20037;-72
2023/05/06 00:37:02;;;;;;;25.13;14.10;;;9.80;99.90;;;;;;5071213;28;20052;-72
2023/05/06 00:39:29;;;;;;;27.50;14.13;;;9.80;99.90;;;;;;5072607;28;20113;-71
2023/05/06 00:42:01;;;;;;;25.23;14.00;;;9.80;99.90;;;;;;5072539;28;20052;-71
2023/05/06 00:44:30;;;;;;;27.85;14.35;;;9.80;99.90;;;;;;5072689;28;20041;-71
2023/05/06 00:46:58;;;;;;;23.88;14.20;;;9.90;99.90;;;;;;5071419;28;20055;-72
2023/05/06 00:49:24;;;;;;;25.02;13.65;;;9.90;99.90;;;;;;5072732;28;20041;-71
2023/05/06 00:51:51;;;;;;;21.75;13.15;;;10.00;99.90;;;;;;5072225;28;20052;-72
2023/05/06 00:54:17;;;;;;;24.52;12.90;;;10.10;99.90;;;;;;5070874;28;20481;-72
2023/05/06 00:56:43;;;;;;;22.08;13.35;;;10.20;99.90;;;;;;5055102;28;20064;-71
2023/05/06 00:59:09;;;;;;;23.05;13.02;;;10.20;99.90;;;;;;5072156;28;20044;-72
2023/05/06 01:01:34;;;;;;;23.52;13.07;;;10.30;99.90;;;;;;5071393;28;20040;-71
2023/05/06 01:04:00;;;;;;;21.52;12.98;;;10.30;99.90;;;;;;5072021;28;20048;-71
2023/05/06 01:06:40;;;;;;;23.55;13.45;;;10.40;99.90;;;;;;5072388;28;20044;-72
2023/05/06 01:09:35;;;;;;;22.08;12.55;;;10.30;99.90;;;;;;5072551;28;20053;-71
2023/05/06 01:12:22;;;;;;;22.42;12.88;;;10.30;99.90;;;;;;5071171;28;20060;-72
2023/05/06 01:14:58;;;;;;;23.70;12.63;;;10.30;99.90;;;;;;5076750;28;20079;-73
2023/05/06 01:17:27;;;;;;;21.88;12.50;;;10.20;99.90;;;;;;5075904;28;20057;-72
2023/05/06 01:19:57;;;;;;;23.52;13.23;;;10.20;99.90;;;;;;5075358;28;20101;-72
2023/05/06 01:22:25;;;;;;;21.40;12.52;;;10.00;99.90;;;;;;5076898;28;20049;-71
2023/05/06 01:24:51;;;;;;;23.10;12.45;;;10.00;99.90;;;;;;5058321;28;20043;-71
2023/05/06 01:27:17;;;;;;;22.52;13.23;;;10.00;99.90;;;;;;5075213;28;20040;-72
2023/05/06 01:29:44;;;;;;;22.52;12.48;;;10.00;99.90;;;;;;5074872;28;20080;-71
2023/05/06 01:32:13;;;;;;;;;;;10.00;99.90;;;;;;5075260;28;20057;-71
2023/05/06 01:34:51;;;;;;;20.45;11.93;;;10.00;99.90;;;;;;5076320;28;20011;-71
2023/05/06 01:37:43;;;;;;;25.35;13.43;;;10.00;99.90;;;;;;5076190;28;20456;-71
2023/05/06 01:40:10;;;;;;;29.60;15.93;;;9.90;99.90;;;;;;5075348;28;20044;-71
2023/05/06 01:42:38;;;;;;;27.83;15.00;;;9.90;99.90;;;;;;5076258;28;20055;-71
2023/05/06 01:45:05;;;;;;;27.17;15.05;;;9.90;99.90;;;;;;5075531;28;20043;-71
2023/05/06 01:47:32;;;;;;;28.42;15.27;;;9.80;99.90;;;;;;5075812;28;20127;-72
2023/05/06 01:49:58;;;;;;;25.45;14.50;;;9.80;99.90;;;;;;5075358;28;20059;-71
2023/05/06 01:52:25;;;;;;;27.58;15.38;;;9.70;99.90;;;;;;5075699;28;20382;-72
2023/05/06 01:54:51;;;;;;;23.25;13.70;;;9.70;99.90;;;;;;5075149;28;20052;-72
2023/05/06 01:57:16;;;;;;;27.05;14.07;;;9.60;99.90;;;;;;5075332;28;20066;-72
2023/05/06 01:59:42;;;;;;;26.05;13.40;;;9.60;99.90;;;;;;5057895;28;20044;-71
2023/05/06 02:02:08;;;;;;;25.38;13.75;;;9.60;99.90;;;;;;5074057;28;20059;-71
2023/05/06 02:04:34;;;;;;;25.35;13.95;;;9.50;99.90;;;;;;5075573;28;20400;-72
2023/05/06 02:06:59;;;;;;;21.92;12.88;;;9.40;99.90;;;;;;5075138;28;20053;-72
2023/05/06 02:09:25;;;;;;;22.63;12.32;;;9.40;99.90;;;;;;5074424;28;20045;-72
2023/05/06 02:11:50;;;;;;;23.20;12.80;;;9.40;99.90;;;;;;5076652;28;20045;-73
2023/05/06 02:14:16;;;;;;;21.95;11.93;;;9.40;99.90;;;;;;5075778;28;20394;-72
2023/05/06 02:16:42;;;;;;;21.50;12.68;;;9.40;99.90;;;;;;5076550;28;20094;-71
2023/05/06 02:19:08;;;;;;;19.67;12.23;;;9.50;99.90;;;;;;5075569;28;20044;-71
2023/05/06 02:21:33;;;;;;;18.77;12.48;;;9.50;99.90;;;;;;5074920;28;20087;-72
2023/05/06 02:23:59;;;;;;;20.23;11.75;;;9.40;99.90;;;;;;5075573;28;20044;-72
2023/05/06 02:26:25;;;;;;;21.13;12.20;;;9.40;99.90;;;;;;5076681;28;20374;-70
2023/05/06 02:28:51;;;;;;;18.35;11.05;;;9.40;99.90;;;;;;5076524;28;20052;-72
2023/05/06 02:31:17;;;;;;;19.60;12.20;;;9.40;99.90;;;;;;5075879;28;20541;-72
2023/05/06 02:33:45;;;;;;;18.65;11.13;;;9.40;99.90;;;;;;5075664;28;20036;-72
2023/05/06 02:36:11;;;;;;;20.45;11.70;;;9.40;99.90;;;;;;5074139;28;20083;-72
2023/05/06 02:38:36;;;;;;;20.90;11.52;;;9.40;99.90;;;;;;5075280;28;20519;-72
2023/05/06 02:41:02;;;;;;;19.73;11.77;;;9.40;99.90;;;;;;5075057;28;20070;-72
2023/05/06 02:43:28;;;;;;;27.02;11.65;;;9.30;99.90;;;;;;5057412;28;20064;-73
2023/05/06 02:45:54;;;;;;;20.42;11.05;;;9.30;99.90;;;;;;5073686;28;20127;-72
2023/05/06 02:48:19;;;;;;;26.23;11.82;;;9.30;99.90;;;;;;5074335;28;20044;-72
2023/05/06 02:50:45;;;;;;;23.30;12.05;;;9.20;99.90;;;;;;5074619;28;20087;-72
2023/05/06 02:53:12;;;;;;;32.58;11.95;;;9.20;99.90;;;;;;5073975;28;20080;-71
2023/05/06 02:55:38;;;;;;;24.25;11.73;;;9.20;99.90;;;;;;5073456;28;20190;-72
2023/05/06 02:58:03;;;;;;;29.17;12.05;;;9.20;99.90;;;;;;5073499;28;20173;-71
2023/05/06 03:00:29;;;;;;;34.63;11.50;;;9.20;99.90;;;;;;5074653;28;20044;-72
2023/05/06 03:02:55;;;;;;;45.10;11.82;;;9.20;99.90;;;;;;5074469;28;20067;-72
2023/05/06 03:05:21;;;;;;;36.88;11.50;;;9.20;99.90;;;;;;5072661;28;20040;-72
2023/05/06 03:07:47;;;;;;;33.03;11.75;;;9.20;99.90;;;;;;5074299;28;20044;-73
2023/05/06 03:10:12;;;;;;;37.88;12.40;;;9.20;99.90;;;;;;5073789;28;20044;-71
2023/05/06 03:12:38;;;;;;;52.42;13.35;;;9.20;99.90;;;;;;5074381;28;20040;-72
2023/05/06 03:15:05;;;;;;;59.55;11.85;;;9.20;99.90;;;;;;5073925;28;20040;-72
2023/05/06 03:17:31;;;;;;;69.20;11.50;;;9.10;99.90;;;;;;5073842;28;20436;-72
2023/05/06 03:19:56;;;;;;;44.22;11.98;;;9.10;99.90;;;;;;5073037;28;20066;-71
2023/05/06 03:22:22;;;;;;;55.80;11.52;;;9.10;99.90;;;;;;5073548;28;20044;-71
2023/05/06 03:24:48;;;;;;;34.05;11.45;;;9.10;99.90;;;;;;5072656;28;20044;-71
2023/05/06 03:27:13;;;;;;;43.88;12.88;;;9.10;99.90;;;;;;5073729;28;20047;-71
2023/05/06 03:29:39;;;;;;;30.83;11.70;;;9.10;99.90;;;;;;5073916;28;20580;-71
2023/05/06 03:32:05;;;;;;;24.25;12.10;;;9.10;99.90;;;;;;5072640;28;20401;-72
2023/05/06 03:34:31;;;;;;;42.55;11.80;;;9.00;99.90;;;;;;5072195;28;20124;-72
2023/05/06 03:36:57;;;;;;;35.50;11.73;;;9.00;99.90;;;;;;5073668;28;20119;-72
2023/05/06 03:39:23;;;;;;;34.57;11.90;;;9.00;99.90;;;;;;5073192;28;20060;-72
2023/05/06 03:41:49;;;;;;;29.80;11.32;;;9.00;99.90;;;;;;5073876;28;20037;-72
2023/05/06 03:44:15;;;;;;;26.88;12.23;;;8.90;99.90;;;;;;5072347;28;20048;-73
2023/05/06 03:46:40;;;;;;;37.35;12.27;;;8.90;99.90;;;;;;5073440;28;20049;-71
2023/05/06 03:49:07;;;;;;;59.85;11.88;;;8.90;99.90;;;;;;5072515;28;20119;-71
2023/05/06 03:51:34;;;;;;;52.17;11.75;;;8.90;99.90;;;;;;5072937;28;20044;-71
2023/05/06 03:54:00;;;;;;;68.93;12.48;;;9.00;99.90;;;;;;5073384;28;20067;-71
2023/05/06 03:56:26;;;;;;;52.70;11.52;;;8.90;99.90;;;;;;5072064;28;20044;-71
2023/05/06 03:58:53;;;;;;;57.50;12.07;;;8.90;99.90;;;;;;5073345;28;20106;-71
2023/05/06 04:01:19;;;;;;;49.53;10.18;;;8.90;99.90;;;;;;5055341;28;20561;-71
2023/05/06 04:03:45;;;;;;;33.70;10.55;;;8.90;99.90;;;;;;5072263;28;20087;-71
2023/05/06 04:06:11;;;;;;;41.60;12.20;;;9.00;99.90;;;;;;5073060;28;20080;-71
2023/05/06 04:08:36;;;;;;;31.02;11.63;;;9.00;99.90;;;;;;5072604;28;20076;-71
2023/05/06 04:11:06;;;;;;;34.58;11.32;;;8.90;99.90;;;;;;5072093;28;20098;-71
2023/05/06 04:13:33;;;;;;;36.08;11.35;;;8.90;99.90;;;;;;5054604;28;20040;-71
2023/05/06 04:15:59;;;;;;;32.70;11.40;;;9.00;99.90;;;;;;5071900;28;20380;-72
2023/05/06 04:18:25;;;;;;;33.05;12.32;;;8.90;99.90;;;;;;5072594;28;20091;-71
2023/05/06 04:20:51;;;;;;;41.53;13.05;;;9.00;99.90;;;;;;5071772;28;20083;-71
2023/05/06 04:23:17;;;;;;;66.38;13.82;;;9.00;99.90;;;;;;5072410;28;20045;-74
2023/05/06 04:25:47;;;;;;;77.75;15.07;;;9.00;99.90;;;;;;5071857;28;20047;-71
2023/05/06 04:28:17;;;;;;;48.67;12.50;;;9.00;99.90;;;;;;5072907;28;20055;-72
2023/05/06 04:30:44;;;;;;;43.60;12.77;;;9.10;99.90;;;;;;5072845;28;20055;-71
2023/05/06 04:33:10;;;;;;;47.38;13.27;;;9.10;99.90;;;;;;5071628;28;20048;-71
2023/05/06 04:35:36;;;;;;;67.25;13.05;;;9.10;99.90;;;;;;5070974;28;20047;-71
2023/05/06 04:38:02;;;;;;;45.58;12.90;;;9.20;99.90;;;;;;5071872;28;20105;-71
2023/05/06 04:40:28;;;;;;;66.50;12.23;;;9.20;99.90;;;;;;5071222;28;20045;-72
2023/05/06 04:42:54;;;;;;;46.53;11.95;;;9.20;99.90;;;;;;5072811;28;20060;-71
2023/05/06 04:45:21;;;;;;;56.67;12.82;;;9.20;99.90;;;;;;5072077;28;20447;-73
2023/05/06 04:47:47;;;;;;;50.67;12.68;;;9.20;99.90;;;;;;5071909;28;20106;-71
2023/05/06 04:50:13;;;;;;;44.65;12.00;;;9.20;99.90;;;;;;5072447;28;20044;-71
2023/05/06 04:52:39;;;;;;;54.83;11.80;;;9.20;99.90;;;;;;5072075;28;20542;-70
2023/05/06 04:55:06;;;;;;;49.42;12.48;;;9.20;99.90;;;;;;5072201;28;20056;-70
2023/05/06 04:57:32;;;;;;;41.50;11.65;;;9.20;99.90;;;;;;5072169;28;20051;-72
2023/05/06 04:59:57;;;;;;;53.88;12.00;;;9.20;99.90;;;;;;5071325;28;20037;-71
2023/05/06 05:02:23;;;;;;;57.08;11.50;;;9.30;99.90;;;;;;5070807;28;20056;-76
2023/05/06 05:04:49;;;;;;;40.85;11.60;;;9.30;99.90;;;;;;5071362;28;20063;-71
2023/05/06 05:07:15;;;;;;;28.95;10.48;;;9.30;99.90;;;;;;5072569;28;20401;-72
2023/05/06 05:09:41;;;;;;;39.72;11.45;;;9.40;99.90;;;;;;5072031;28;20091;-71
2023/05/06 05:12:06;;;;;;;22.63;10.98;;;9.40;99.90;;;;;;5071380;28;20040;-72
2023/05/06 05:14:32;;;;;;;37.30;11.45;;;9.40;99.90;;;;;;5071752;28;20063;-72
2023/05/06 05:16:58;;;;;;;25.52;11.32;;;9.50;99.90;;;;;;5038102;28;20127;-72
2023/05/06 05:19:23;;;;;;;25.92;10.68;;;9.50;99.90;;;;;;5072228;28;20426;-71
2023/05/06 05:21:49;;;;;;;27.90;10.40;;;9.60;99.90;;;;;;5072025;28;20036;-71
2023/05/06 05:24:15;;;;;;;22.13;10.88;;;9.70;99.90;;;;;;5072258;28;20503;-72
2023/05/06 05:26:41;;;;;;;14.85;9.95;;;9.80;99.90;;;;;;5071533;28;20041;-71
2023/05/06 05:29:07;;;;;;;14.65;10.38;;;9.80;99.90;;;;;;5071043;28;20054;-71
2023/05/06 05:31:32;;;;;;;16.48;10.38;;;9.90;99.90;;;;;;5071565;28;20044;-71
2023/05/06 05:33:58;;;;;;;14.32;9.70;;;10.00;99.90;;;;;;5070605;28;20036;-71
2023/05/06 05:36:25;;;;;;;15.18;10.35;;;10.20;99.90;;;;;;5054183;28;20045;-72
2023/05/06 05:38:50;;;;;;;14.25;9.93;;;10.40;99.90;;;;;;5071727;28;20059;-72
2023/05/06 05:41:16;;;;;;;16.38;10.55;;;10.50;99.90;;;;;;5071075;28;20041;-72
2023/05/06 05:43:42;;;;;;;14.15;9.93;;;10.70;99.90;;;;;;5053880;28;20485;-72
2023/05/06 05:46:08;;;;;;;16.17;9.95;;;10.80;99.90;;;;;;5070808;28;20052;-71
2023/05/06 05:48:33;;;;;;;14.93;9.93;;;10.90;99.90;;;;;;5071275;28;20044;-72
2023/05/06 05:51:02;;;;;;;16.48;10.30;;;11.00;99.90;;;;;;5070420;28;20059;-72
2023/05/06 05:53:28;;;;;;;14.85;10.38;;;11.20;99.90;;;;;;5071763;28;20055;-72
2023/05/06 05:55:54;;;;;;;16.95;10.85;;;11.30;99.90;;;;;;5071644;28;20092;-72
2023/05/06 05:58:19;;;;;;;15.60;10.20;;;11.50;99.90;;;;;;5075540;28;20059;-71
2023/05/06 06:00:45;;;;;;;15.80;9.48;;;11.70;99.90;;;;;;5075065;28;20048;-71
2023/05/06 06:03:11;;;;;;;15.77;10.00;;;11.90;99.90;;;;;;5075286;28;20142;-72
2023/05/06 06:05:36;;;;;;;15.35;9.93;;;12.10;99.90;;;;;;5074626;28;20040;-71
2023/05/06 06:08:03;;;;;;;13.95;9.45;;;12.30;99.90;;;;;;5074322;28;20087;-72
2023/05/06 06:10:29;;;;;;;13.90;9.10;;;12.40;99.90;;;;;;5075410;28;20055;-71
2023/05/06 06:12:55;;;;;;;15.63;9.27;;;12.50;99.90;;;;;;5074797;28;20412;-70
2023/05/06 06:15:21;;;;;;;16.25;9.50;;;12.60;99.90;;;;;;5075140;28;20148;-72
2023/05/06 06:17:46;;;;;;;15.63;9.07;;;12.70;99.90;;;;;;5074510;28;20049;-72
2023/05/06 06:20:13;;;;;;;15.93;9.52;;;12.80;99.90;;;;;;5057127;28;20079;-72
2023/05/06 06:22:39;;;;;;;18.83;9.10;;;12.90;99.90;;;;;;5073547;28;20098;-73
2023/05/06 06:25:05;;;;;;;16.52;9.52;;;13.00;99.90;;;;;;5074949;28;20051;-73
2023/05/06 06:27:35;;;;;;;15.33;9.43;;;13.10;99.90;;;;;;5073771;28;20132;-72
2023/05/06 06:30:01;;;;;;;19.33;10.25;;;13.30;99.90;;;;;;5074805;28;20052;-72
2023/05/06 06:32:27;;;;;;;17.73;10.45;;;13.40;99.90;;;;;;5075071;28;20048;-73
2023/05/06 06:34:53;;;;;;;20.83;11.00;;;13.60;99.90;;;;;;5074062;28;20610;-72
2023/05/06 06:37:19;;;;;;;17.90;10.13;;;13.60;99.90;;;;;;5074858;28;20044;-71
2023/05/06 06:39:44;;;;;;;18.60;11.13;;;13.70;99.90;;;;;;5073544;28;20405;-73
2023/05/06 06:42:10;;;;;;;19.70;10.43;;;13.80;99.90;;;;;;5074769;28;20053;-72
2023/05/06 06:44:36;;;;;;;18.23;10.15;;;13.90;99.90;;;;;;5073564;28;20444;-72
2023/05/06 06:47:02;;;;;;;16.05;10.07;;;13.80;99.90;;;;;;5074193;28;20171;-73
2023/05/06 06:49:29;;;;;;;16.75;10.07;;;13.80;99.90;;;;;;5073379;28;20052;-72
2023/05/06 06:51:56;;;;;;;;;;;13.90;99.90;;;;;;5073200;28;20087;-72
2023/05/06 06:54:22;;;;;;;21.35;11.02;;;13.80;99.90;;;;;;5073235;28;19920;-72
2023/05/06 06:56:47;;;;;;;16.65;10.57;;;13.80;99.90;;;;;;5074257;28;20101;-73
2023/05/06 06:59:13;;;;;;;18.85;10.82;;;13.80;99.90;;;;;;5073250;28;20044;-72
2023/05/06 07:01:40;;;;;;;17.42;11.30;;;13.80;99.90;;;;;;5074263;28;20051;-72
2023/05/06 07:04:06;;;;;;;18.27;11.07;;;13.70;99.90;;;;;;5074074;28;20400;-72
2023/05/06 07:06:32;;;;;;;17.95;11.13;;;13.60;99.90;;;;;;5056450;28;20048;-72
2023/05/06 07:08:58;;;;;;;19.77;11.35;;;13.70;99.90;;;;;;5072445;28;20135;-72
2023/05/06 07:11:23;;;;;;;19.63;11.77;;;13.60;99.90;;;;;;5073168;28;20481;-72
2023/05/06 07:13:49;;;;;;;18.60;11.48;;;13.80;99.90;;;;;;5073643;28;20051;-73
2023/05/06 07:16:15;;;;;;;20.88;12.60;;;13.80;99.90;;;;;;5072949;28;20128;-72
2023/05/06 07:18:41;;;;;;;22.60;13.77;;;13.80;99.90;;;;;;5073878;28;20049;-71
2023/05/06 07:21:06;;;;;;;22.15;13.43;;;13.90;99.90;;;;;;5055727;28;20138;-72
2023/05/06 07:23:32;;;;;;;20.17;12.52;;;13.90;99.90;;;;;;5056378;28;20044;-72
2023/05/06 07:25:58;;;;;;;21.90;13.35;;;14.00;99.90;;;;;;5073674;28;20129;-72
2023/05/06 07:28:24;;;;;;;21.40;13.07;;;13.80;99.90;;;;;;5072767;28;20045;-73
2023/05/06 07:30:51;;;;;;;21.93;13.10;;;14.00;99.90;;;;;;5073394;28;20214;-71
2023/05/06 07:33:17;;;;;;;21.55;12.98;;;13.90;99.90;;;;;;5073447;28;20053;-71
2023/05/06 07:35:42;;;;;;;22.70;13.43;;;14.10;99.90;;;;;;5072794;28;20684;-71
2023/05/06 07:38:08;;;;;;;23.00;13.35;;;14.20;99.90;;;;;;5072092;28;20041;-72
2023/05/06 07:40:34;;;;;;;23.05;13.63;;;14.40;99.90;;;;;;5073576;28;20049;-71
2023/05/06 07:43:01;;;;;;;22.60;13.80;;;14.40;99.90;;;;;;5073168;28;20174;-72
2023/05/06 07:45:27;;;;;;;22.92;13.30;;;14.50;99.90;;;;;;5073960;28;20048;-74
2023/05/06 07:47:53;;;;;;;23.73;13.38;;;14.70;99.90;;;;;;5055109;28;20052;-73
2023/05/06 07:50:19;;;;;;;23.67;12.63;;;14.70;99.90;;;;;;5071973;28;20040;-72
2023/05/06 07:52:44;;;;;;;23.23;12.80;;;14.90;99.90;;;;;;5073515;28;20093;-73
2023/05/06 07:55:10;;;;;;;20.75;12.50;;;15.10;99.90;;;;;;5071365;28;20060;-72
2023/05/06 07:57:36;;;;;;;18.00;10.77;;;15.20;99.90;;;;;;5074153;28;20063;-72
2023/05/06 08:00:02;;;;;;;19.42;10.40;;;15.30;99.90;;;;;;5055662;28;20400;-72
2023/05/06 08:02:30;;;;;;;19.00;10.37;;;;;;;;;;5055893;28;20396;-71
2023/05/06 08:04:56;;;;;;;17.75;10.00;;;;;;;;;;5072484;28;20044;-73
2023/05/06 08:07:22;;;;;;;17.02;9.95;;;15.40;99.90;;;;;;5072395;28;20055;-74
2023/05/06 08:09:47;;;;;;;17.65;9.38;;;15.50;99.90;;;;;;5073154;28;20048;-72
2023/05/06 08:12:14;;;;;;;16.55;9.27;;;15.60;99.90;;;;;;5072609;28;20546;-72
2023/05/06 08:14:40;;;;;;;17.13;9.82;;;15.70;99.90;;;;;;5072947;28;20054;-73
2023/05/06 08:17:06;;;;;;;19.48;11.38;;;15.70;99.90;;;;;;5073469;28;20044;-72
2023/05/06 08:19:31;;;;;;;21.10;11.00;;;15.90;99.90;;;;;;5073584;28;20049;-72
2023/05/06 08:21:57;;;;;;;20.45;10.52;;;16.10;99.90;;;;;;5073275;28;20087;-74
2023/05/06 08:24:23;;;;;;;18.38;10.50;;;16.00;99.90;;;;;;5075268;28;20044;-73
2023/05/06 08:26:49;;;;;;;20.05;10.45;;;16.00;99.90;;;;;;5075050;28;20044;-71
2023/05/06 08:29:15;;;;;;;14.07;8.00;;;15.90;99.90;;;;;;5074901;28;20135;-72
2023/05/06 08:31:41;;;;;;;19.42;9.55;;;15.90;99.90;;;;;;5072893;28;20048;-72
2023/05/06 08:34:07;;;;;;;19.27;10.98;;;15.80;99.90;;;;;;5072410;28;20056;-72
2023/05/06 08:36:33;;;;;;;19.67;10.18;;;16.00;99.90;;;;;;5071837;28;20501;-71
2023/05/06 08:38:59;;;;;;;20.23;11.57;;;16.10;99.90;;;;;;5054627;28;20044;-72
2023/05/06 08:41:27;;;;;;;18.85;10.52;;;16.10;99.90;;;;;;5071699;28;20450;-73
2023/05/06 08:43:54;;;;;;;19.02;10.98;;;16.20;99.90;;;;;;5072574;28;20044;-72
2023/05/06 08:46:20;;;;;;;21.20;10.98;;;16.30;99.90;;;;;;5072033;28;20048;-72
2023/05/06 08:48:46;;;;;;;21.80;11.90;;;16.30;99.90;;;;;;5072359;28;20044;-71
2023/05/06 08:51:14;;;;;;;22.90;11.20;;;16.40;99.90;;;;;;5054399;28;20044;-72
2023/05/06 08:53:45;;;;;;;22.98;11.15;;;16.50;99.90;;;;;;5054940;28;20141;-72
2023/05/06 08:56:12;;;;;;;21.05;11.80;;;16.60;99.90;;;;;;5071749;28;20058;-73
2023/05/06 08:58:40;;;;;;;22.00;11.20;;;16.70;99.90;;;;;;5072336;28;20059;-73
2023/05/06 09:01:06;;;;;;;21.15;10.55;;;16.80;99.90;;;;;;5072090;28;20048;-73
2023/05/06 09:03:32;;;;;;;20.67;11.65;;;16.90;99.90;;;;;;5072315;28;20107;-72
2023/05/06 09:05:57;;;;;;;22.07;10.93;;;17.00;99.90;;;;;;5072582;28;20484;-72
2023/05/06 09:08:23;;;;;;;19.83;9.43;;;17.10;99.90;;;;;;5072010;28;20131;-74
2023/05/06 09:10:49;;;;;;;19.48;10.25;;;17.20;99.90;;;;;;5054869;28;20348;-73
2023/05/06 09:13:18;;;;;;;19.97;10.03;;;17.30;99.90;;;;;;5071901;28;20048;-73
2023/05/06 09:15:46;;;;;;;17.70;9.40;;;17.50;99.90;;;;;;5071981;28;20050;-74
2023/05/06 09:18:13;;;;;;;20.40;10.15;;;17.50;99.90;;;;;;5072003;28;20045;-73
2023/05/06 09:20:44;;;;;;;14.45;6.70;;;17.60;99.90;;;;;;5071022;28;20119;-71
2023/05/06 09:23:12;;;;;;;17.95;8.98;;;17.60;99.90;;;;;;5070764;28;20053;-71
2023/05/06 09:25:38;;;;;;;17.67;9.68;;;17.70;99.90;;;;;;5071958;28;20123;-74
2023/05/06 09:28:09;;;;;;;17.13;9.27;;;17.80;99.90;;;;;;5037341;28;20120;-72
2023/05/06 09:30:42;;;;;;;14.43;8.40;;;17.90;99.90;;;;;;5071788;28;20095;-72
2023/05/06 09:33:08;;;;;;;15.80;8.90;;;18.10;99.90;;;;;;5075498;28;20048;-73
2023/05/06 09:35:39;;;;;;;16.90;9.07;;;18.20;99.90;;;;;;5076138;28;20048;-73
2023/05/06 09:38:06;;;;;;;17.60;8.98;;;18.30;99.90;;;;;;5074815;28;20052;-73
2023/05/06 09:40:32;;;;;;;15.55;8.57;;;18.40;99.90;;;;;;5075885;28;20052;-73
2023/05/06 09:42:59;;;;;;;15.77;8.88;;;18.70;99.90;;;;;;5075839;28;20040;-74
2023/05/06 09:45:25;;;;;;;14.13;7.32;;;19.00;99.90;;;;;;5075549;28;20087;-68
2023/05/06 09:47:53;;;;;;;17.75;9.23;;;19.30;99.90;;;;;;5075916;28;20178;-74
2023/05/06 09:50:22;;;;;;;17.77;9.68;;;19.60;99.90;;;;;;5075356;28;20048;-79
2023/05/06 09:52:49;;;;;;;18.08;8.80;;;19.60;99.90;;;;;;5075776;28;20049;-74
2023/05/06 09:55:18;;;;;;;17.05;8.27;;;19.60;99.90;;;;;;5075103;28;20048;-74
2023/05/06 09:57:45;;;;;;;16.55;9.43;;;19.80;99.90;;;;;;5075282;28;20049;-73
2023/05/06 10:00:13;;;;;;;15.85;8.70;;;19.70;99.90;;;;;;5074991;28;20033;-73
2023/05/06 10:02:43;;;;;;;14.05;8.93;;;19.80;99.90;;;;;;5075263;28;20489;-73
2023/05/06 10:05:10;;;;;;;15.15;9.38;;;19.90;99.90;;;;;;5074806;28;20481;-74
2023/05/06 10:07:36;;;;;;;18.70;9.93;;;19.90;99.90;;;;;;5075327;28;20044;-74
2023/05/06 10:10:03;;;;;;;15.43;9.13;;;19.50;99.90;;;;;;5075167;28;20377;-73
2023/05/06 10:12:29;;;;;;;17.17;9.20;;;19.80;99.90;;;;;;5075084;28;20052;-75
2023/05/06 10:14:55;;;;;;;16.88;9.65;;;19.90;99.90;;;;;;5074960;28;20538;-74
2023/05/06 10:17:24;;;;;;;15.80;9.83;;;19.90;99.90;;;;;;5073670;28;20048;-75
2023/05/06 10:19:56;;;;;;;15.52;9.20;;;20.10;99.90;;;;;;5075117;28;20067;-71
2023/05/06 10:22:34;;;;;;;15.93;8.85;;;20.20;99.90;;;;;;5073916;28;20047;-73
2023/05/06 10:25:22;;;;;;;16.55;9.55;;;20.30;99.90;;;;;;5075160;28;20048;-74
2023/05/06 10:27:48;;;;;;;16.48;10.13;;;20.40;99.90;;;;;;5074864;28;20044;-73
2023/05/06 10:30:17;;;;;;;16.65;9.88;;;20.20;99.90;;;;;;5074695;28;20048;-73
2023/05/06 10:32:44;;;;;;;15.35;9.23;;;20.50;99.90;;;;;;5073691;28;20053;-73
2023/05/06 10:35:25;;;;;;;;;;;20.50;99.90;;;;;;5074946;28;20499;-72
2023/05/06 10:37:51;;;;;;;15.77;9.75;;;20.50;99.90;;;;;;5074843;28;19967;-74
2023/05/06 10:40:18;;;;;;;11.82;7.47;;;20.60;99.90;;;;;;5074421;28;20086;-74
2023/05/06 10:42:43;;;;;;;15.25;8.07;;;20.80;99.90;;;;;;5073122;28;20044;-73
2023/05/06 10:45:10;;;;;;;14.80;9.20;;;20.90;99.90;;;;;;5074620;28;20067;-74
2023/05/06 10:47:54;;;;;;;16.10;9.32;;;21.10;99.90;;;;;;5056611;28;20064;-73
2023/05/06 10:50:23;;;;;;;14.70;7.75;;;20.80;99.90;;;;;;5074191;28;20056;-74
2023/05/06 10:52:51;;;;;;;12.48;7.32;;;20.70;99.90;;;;;;5074534;28;20052;-74
2023/05/06 10:55:43;;;;;;;14.52;8.55;;;20.60;99.90;;;;;;5073863;28;20500;-75
2023/05/06 10:58:13;;;;;;;15.27;9.02;;;20.70;99.90;;;;;;5072330;28;20079;-74
2023/05/06 11:00:40;;;;;;;17.58;10.18;;;20.60;99.90;;;;;;5074066;28;20074;-74
2023/05/06 11:03:12;;;;;;;15.18;9.70;;;20.80;99.90;;;;;;5074437;28;20090;-75
2023/05/06 11:05:51;;;;;;;15.52;10.15;;;21.00;99.90;;;;;;5073819;28;20088;-74
2023/05/06 11:08:24;;;;;;;17.52;10.35;;;20.80;99.90;;;;;;5056293;28;20052;-77
2023/05/06 11:10:51;;;;;;;17.95;10.63;;;20.80;99.90;;;;;;5074128;28;20412;-73
2023/05/06 11:13:25;;;;;;;15.70;9.70;;;20.60;99.90;;;;;;5074160;28;20083;-74
2023/05/06 11:15:51;;;;;;;17.00;10.18;;;20.60;99.90;;;;;;5073033;28;20048;-74
2023/05/06 11:18:23;;;;;;;18.65;10.18;;;20.50;99.90;;;;;;5056551;28;20139;-72
2023/05/06 11:21:01;;;;;;;16.00;9.23;;;20.70;99.90;;;;;;5072649;28;20053;-73
2023/05/06 11:23:45;;;;;;;16.10;10.07;;;20.60;99.90;;;;;;5073442;28;20048;-74
2023/05/06 11:26:12;;;;;;;18.38;9.60;;;20.70;99.90;;;;;;5072888;28;20044;-74
2023/05/06 11:28:38;;;;;;;;;;;20.90;99.90;;;;;;5073850;28;20052;-73
2023/05/06 11:31:04;;;;;;;;;;;21.00;99.90;;;;;;5074147;28;19920;-74
2023/05/06 11:33:35;;;;;;;18.05;8.85;;;21.00;99.90;;;;;;5073622;28;19990;-74
2023/05/06 11:36:02;;;;;;;14.43;9.00;;;21.00;99.90;;;;;;5073586;28;20105;-73
2023/05/06 11:38:44;;;;;;;13.90;8.77;;;;;;;;;;5073524;28;20389;-75
2023/05/06 11:41:10;;;;;;;15.52;9.27;;;21.10;99.90;;;;;;5073407;28;20422;-74
2023/05/06 11:43:36;;;;;;;18.08;9.77;;;;;;;;;;5073434;28;20142;-75
2023/05/06 11:46:02;;;;;;;16.45;10.10;;;20.30;99.90;;;;;;5072636;28;20123;-74
2023/05/06 11:48:28;;;;;;;17.47;10.10;;;20.50;99.90;;;;;;5072821;28;20417;-73
2023/05/06 11:50:54;;;;;;;16.83;9.30;;;20.30;99.90;;;;;;5072475;28;20497;-74
2023/05/06 11:53:22;;;;;;;17.35;9.55;;;20.20;99.90;;;;;;5073068;28;20060;-73
2023/05/06 11:55:52;;;;;;;15.15;9.60;;;20.10;99.90;;;;;;5071369;28;20566;-74
2023/05/06 11:58:26;;;;;;;17.20;9.50;;;19.90;99.90;;;;;;5073305;28;20095;-74
2023/05/06 12:00:58;;;;;;;14.63;8.90;;;20.10;99.90;;;;;;5072944;28;20048;-75
2023/05/06 12:03:25;;;;;;;15.10;8.70;;;20.20;99.90;;;;;;5072149;28;20051;-73
2023/05/06 12:05:51;;;;;;;14.88;8.75;;;20.10;99.90;;;;;;5071905;28;20463;-75
2023/05/06 12:08:24;;;;;;;15.00;8.43;;;20.20;99.90;;;;;;5071855;28;20131;-73
2023/05/06 12:10:51;;;;;;;13.45;7.80;;;20.20;99.90;;;;;;5072670;28;20048;-74
2023/05/06 12:13:18;;;;;;;17.60;7.45;;;20.60;99.90;;;;;;5072699;28;20048;-74
2023/05/06 12:15:43;;;;;;;;;;;20.70;99.90;;;;;;5072666;28;20109;-73
2023/05/06 12:18:10;;;;;;;11.32;5.22;;;20.90;99.90;;;;;;5072014;28;19928;-73
2023/05/06 12:20:38;;;;;;;11.63;6.00;;;;;;;;;;5072466;28;20048;-75
2023/05/06 12:23:12;;;;;;;10.65;5.25;;;21.50;99.90;;;;;;5071538;28;20048;-75
2023/05/06 12:25:39;;;;;;;11.82;5.68;;;22.00;99.90;;;;;;5071343;28;20066;-73
2023/05/06 12:28:25;;;;;;;7.63;3.92;;;22.00;99.90;;;;;;5072625;28;20044;-74
2023/05/06 12:30:51;;;;;;;12.00;5.85;;;22.20;99.90;;;;;;5071262;28;20051;-75
2023/05/06 12:33:17;;;;;;;9.70;4.82;;;22.30;99.90;;;;;;5072684;28;20063;-74
2023/05/06 12:35:43;;;;;;;11.53;5.77;;;22.20;99.90;;;;;;5071111;28;20044;-74
2023/05/06 12:38:11;;;;;;;12.27;6.43;;;22.30;99.90;;;;;;5072625;28;20396;-74